sensor_id;sensor_type;location;lat;lon;timestamp;P1;durP1;ratioP1;P2;durP2;ratioP2
10481;SDS011;5288;42.334;23.876;2023-07-31T00:01:47;6.57;;;4.90;;
10481;SDS011;5288;42.334;23.876;2023-07-31T00:04:14;6.03;;;4.47;;
10481;SDS011;5288;42.334;23.876;2023-07-31T00:06:41;6.13;;;3.93;;
10481;SDS011;5288;42.334;23.876;2023-07-31T00:09:08;4.53;;;4.10;;
10481;SDS011;5288;42.334;23.876;2023-07-31T00:11:35;4.60;;;4.20;;
10481;SDS011;5288;42.334;23.876;2023-07-31T00:14:04;4.80;;;4.40;;
10481;SDS011;5288;42.334;23.876;2023-07-31T00:16:31;4.73;;;4.33;;
10481;SDS011;5288;42.334;23.876;2023-07-31T00:18:58;5.63;;;4.30;;
10481;SDS011;5288;42.334;23.876;2023-07-31T00:21:25;4.63;;;4.23;;
10481;SDS011;5288;42.334;23.876;2023-07-31T00:23:52;6.20;;;4.70;;
10481;SDS011;5288;42.334;23.876;2023-07-31T00:26:18;11.33;;;4.60;;
10481;SDS011;5288;42.334;23.876;2023-07-31T00:28:45;8.03;;;4.67;;
10481;SDS011;5288;42.334;23.876;2023-07-31T00:31:14;8.47;;;4.90;;
10481;SDS011;5288;42.334;23.876;2023-07-31T00:33:41;18.90;;;5.70;;
10481;SDS011;5288;42.334;23.876;2023-07-31T00:36:08;8.63;;;5.80;;
10481;SDS011;5288;42.334;23.876;2023-07-31T00:38:35;10.43;;;6.37;;
10481;SDS011;5288;42.334;23.876;2023-07-31T00:41:02;10.87;;;5.70;;
10481;SDS011;5288;42.334;23.876;2023-07-31T00:43:28;13.00;;;6.33;;
10481;SDS011;5288;42.334;23.876;2023-07-31T00:45:55;12.03;;;6.77;;
10481;SDS011;5288;42.334;23.876;2023-07-31T00:48:24;10.63;;;6.57;;
10481;SDS011;5288;42.334;23.876;2023-07-31T00:50:51;10.50;;;6.43;;
10481;SDS011;5288;42.334;23.876;2023-07-31T00:53:26;11.37;;;7.23;;
10481;SDS011;5288;42.334;23.876;2023-07-31T00:55:53;10.63;;;6.83;;
10481;SDS011;5288;42.334;23.876;2023-07-31T00:58:21;10.80;;;6.60;;
10481;SDS011;5288;42.334;23.876;2023-07-31T01:00:48;9.87;;;6.53;;
10481;SDS011;5288;42.334;23.876;2023-07-31T01:03:15;10.77;;;6.60;;
10481;SDS011;5288;42.334;23.876;2023-07-31T01:05:46;9.87;;;6.63;;
10481;SDS011;5288;42.334;23.876;2023-07-31T01:08:24;10.87;;;6.63;;
10481;SDS011;5288;42.334;23.876;2023-07-31T01:11:00;9.37;;;6.70;;
10481;SDS011;5288;42.334;23.876;2023-07-31T01:13:34;9.73;;;7.17;;
10481;SDS011;5288;42.334;23.876;2023-07-31T01:16:01;12.60;;;6.30;;
10481;SDS011;5288;42.334;23.876;2023-07-31T01:18:28;7.10;;;5.90;;
10481;SDS011;5288;42.334;23.876;2023-07-31T01:21:01;12.17;;;7.17;;
10481;SDS011;5288;42.334;23.876;2023-07-31T01:23:50;12.70;;;7.03;;
10481;SDS011;5288;42.334;23.876;2023-07-31T01:26:32;12.27;;;7.47;;
10481;SDS011;5288;42.334;23.876;2023-07-31T01:29:03;11.23;;;7.80;;
10481;SDS011;5288;42.334;23.876;2023-07-31T01:31:36;12.10;;;7.13;;
10481;SDS011;5288;42.334;23.876;2023-07-31T01:34:05;9.77;;;6.73;;
10481;SDS011;5288;42.334;23.876;2023-07-31T01:36:35;9.00;;;7.00;;
10481;SDS011;5288;42.334;23.876;2023-07-31T01:39:02;9.50;;;6.93;;
10481;SDS011;5288;42.334;23.876;2023-07-31T01:41:31;9.33;;;7.37;;
10481;SDS011;5288;42.334;23.876;2023-07-31T01:43:57;8.93;;;7.27;;
10481;SDS011;5288;42.334;23.876;2023-07-31T01:46:24;8.70;;;7.47;;
10481;SDS011;5288;42.334;23.876;2023-07-31T01:48:51;11.40;;;6.83;;
10481;SDS011;5288;42.334;23.876;2023-07-31T01:51:18;10.60;;;7.20;;
10481;SDS011;5288;42.334;23.876;2023-07-31T01:53:45;10.37;;;6.77;;
10481;SDS011;5288;42.334;23.876;2023-07-31T01:56:12;8.67;;;6.67;;
10481;SDS011;5288;42.334;23.876;2023-07-31T01:58:41;7.73;;;6.93;;
10481;SDS011;5288;42.334;23.876;2023-07-31T02:01:07;9.13;;;6.43;;
10481;SDS011;5288;42.334;23.876;2023-07-31T02:03:34;7.63;;;6.47;;
10481;SDS011;5288;42.334;23.876;2023-07-31T02:06:01;15.23;;;6.80;;
10481;SDS011;5288;42.334;23.876;2023-07-31T02:08:28;10.77;;;6.93;;
10481;SDS011;5288;42.334;23.876;2023-07-31T02:10:55;7.47;;;5.97;;
10481;SDS011;5288;42.334;23.876;2023-07-31T02:13:22;11.27;;;6.80;;
10481;SDS011;5288;42.334;23.876;2023-07-31T02:15:51;7.03;;;6.33;;
10481;SDS011;5288;42.334;23.876;2023-07-31T02:18:18;7.83;;;6.20;;
10481;SDS011;5288;42.334;23.876;2023-07-31T02:20:48;7.63;;;6.83;;
10481;SDS011;5288;42.334;23.876;2023-07-31T02:23:16;6.73;;;5.93;;
10481;SDS011;5288;42.334;23.876;2023-07-31T02:25:43;7.57;;;6.37;;
10481;SDS011;5288;42.334;23.876;2023-07-31T02:28:10;7.30;;;6.60;;
10481;SDS011;5288;42.334;23.876;2023-07-31T02:30:37;7.13;;;6.53;;
10481;SDS011;5288;42.334;23.876;2023-07-31T02:33:05;9.97;;;7.80;;
10481;SDS011;5288;42.334;23.876;2023-07-31T02:35:32;10.23;;;6.83;;
10481;SDS011;5288;42.334;23.876;2023-07-31T02:37:59;8.57;;;6.80;;
10481;SDS011;5288;42.334;23.876;2023-07-31T02:40:26;7.83;;;7.10;;
10481;SDS011;5288;42.334;23.876;2023-07-31T02:42:53;8.30;;;7.53;;
10481;SDS011;5288;42.334;23.876;2023-07-31T02:45:20;7.33;;;6.63;;
10481;SDS011;5288;42.334;23.876;2023-07-31T02:47:47;8.70;;;7.47;;
10481;SDS011;5288;42.334;23.876;2023-07-31T02:50:15;6.90;;;6.30;;
10481;SDS011;5288;42.334;23.876;2023-07-31T02:52:42;8.50;;;6.93;;
10481;SDS011;5288;42.334;23.876;2023-07-31T02:55:09;8.07;;;7.03;;
10481;SDS011;5288;42.334;23.876;2023-07-31T02:57:37;8.43;;;6.70;;
10481;SDS011;5288;42.334;23.876;2023-07-31T03:00:05;8.93;;;7.00;;
10481;SDS011;5288;42.334;23.876;2023-07-31T03:02:33;12.60;;;7.13;;
10481;SDS011;5288;42.334;23.876;2023-07-31T03:04:59;10.53;;;6.63;;
10481;SDS011;5288;42.334;23.876;2023-07-31T03:07:28;6.30;;;5.67;;
10481;SDS011;5288;42.334;23.876;2023-07-31T03:09:55;7.77;;;6.97;;
10481;SDS011;5288;42.334;23.876;2023-07-31T03:12:22;7.33;;;6.63;;
10481;SDS011;5288;42.334;23.876;2023-07-31T03:14:49;7.90;;;6.07;;
10481;SDS011;5288;42.334;23.876;2023-07-31T03:17:16;6.60;;;6.00;;
10481;SDS011;5288;42.334;23.876;2023-07-31T03:19:43;7.63;;;6.83;;
10481;SDS011;5288;42.334;23.876;2023-07-31T03:22:10;7.17;;;6.53;;
10481;SDS011;5288;42.334;23.876;2023-07-31T03:24:38;8.80;;;6.50;;
10481;SDS011;5288;42.334;23.876;2023-07-31T03:27:06;7.77;;;6.90;;
10481;SDS011;5288;42.334;23.876;2023-07-31T03:29:32;7.97;;;6.33;;
10481;SDS011;5288;42.334;23.876;2023-07-31T03:31:59;7.10;;;6.37;;
10481;SDS011;5288;42.334;23.876;2023-07-31T03:34:26;7.90;;;7.10;;
10481;SDS011;5288;42.334;23.876;2023-07-31T03:36:53;7.37;;;6.60;;
10481;SDS011;5288;42.334;23.876;2023-07-31T03:39:20;7.77;;;6.97;;
10481;SDS011;5288;42.334;23.876;2023-07-31T03:41:48;14.27;;;6.97;;
10481;SDS011;5288;42.334;23.876;2023-07-31T03:44:15;9.57;;;5.97;;
10481;SDS011;5288;42.334;23.876;2023-07-31T03:46:42;7.93;;;6.07;;
10481;SDS011;5288;42.334;23.876;2023-07-31T03:49:09;7.40;;;6.70;;
10481;SDS011;5288;42.334;23.876;2023-07-31T03:51:36;6.77;;;6.10;;
10481;SDS011;5288;42.334;23.876;2023-07-31T03:54:03;6.40;;;5.90;;
10481;SDS011;5288;42.334;23.876;2023-07-31T03:56:30;9.57;;;7.07;;
10481;SDS011;5288;42.334;23.876;2023-07-31T03:58:58;6.93;;;6.33;;
10481;SDS011;5288;42.334;23.876;2023-07-31T04:01:26;9.57;;;7.00;;
10481;SDS011;5288;42.334;23.876;2023-07-31T04:03:53;7.77;;;6.73;;
10481;SDS011;5288;42.334;23.876;2023-07-31T04:06:20;9.40;;;6.97;;
10481;SDS011;5288;42.334;23.876;2023-07-31T04:08:47;23.03;;;8.30;;
10481;SDS011;5288;42.334;23.876;2023-07-31T04:11:14;8.07;;;6.97;;
10481;SDS011;5288;42.334;23.876;2023-07-31T04:13:40;15.43;;;8.97;;
10481;SDS011;5288;42.334;23.876;2023-07-31T04:16:09;13.43;;;7.87;;
10481;SDS011;5288;42.334;23.876;2023-07-31T04:18:36;10.97;;;8.23;;
10481;SDS011;5288;42.334;23.876;2023-07-31T04:21:03;9.37;;;8.47;;
10481;SDS011;5288;42.334;23.876;2023-07-31T04:23:30;34.97;;;11.63;;
10481;SDS011;5288;42.334;23.876;2023-07-31T04:25:57;8.10;;;7.43;;
10481;SDS011;5288;42.334;23.876;2023-07-31T04:28:24;23.87;;;10.10;;
10481;SDS011;5288;42.334;23.876;2023-07-31T04:30:51;9.97;;;8.83;;
10481;SDS011;5288;42.334;23.876;2023-07-31T04:33:20;9.47;;;8.37;;
10481;SDS011;5288;42.334;23.876;2023-07-31T04:35:50;9.67;;;8.77;;
10481;SDS011;5288;42.334;23.876;2023-07-31T04:38:18;10.10;;;8.97;;
10481;SDS011;5288;42.334;23.876;2023-07-31T04:40:45;9.80;;;8.83;;
10481;SDS011;5288;42.334;23.876;2023-07-31T04:43:12;10.30;;;9.30;;
10481;SDS011;5288;42.334;23.876;2023-07-31T04:45:39;11.10;;;10.00;;
10481;SDS011;5288;42.334;23.876;2023-07-31T04:48:08;11.47;;;10.23;;
10481;SDS011;5288;42.334;23.876;2023-07-31T04:50:36;14.67;;;9.80;;
10481;SDS011;5288;42.334;23.876;2023-07-31T04:53:03;45.20;;;14.43;;
10481;SDS011;5288;42.334;23.876;2023-07-31T04:55:30;19.07;;;11.27;;
10481;SDS011;5288;42.334;23.876;2023-07-31T04:57:57;14.03;;;10.73;;
10481;SDS011;5288;42.334;23.876;2023-07-31T05:00:25;12.07;;;10.87;;
10481;SDS011;5288;42.334;23.876;2023-07-31T05:02:52;13.57;;;12.23;;
10481;SDS011;5288;42.334;23.876;2023-07-31T05:05:19;12.20;;;11.03;;
10481;SDS011;5288;42.334;23.876;2023-07-31T05:07:47;15.00;;;13.33;;
10481;SDS011;5288;42.334;23.876;2023-07-31T05:10:14;23.70;;;13.87;;
10481;SDS011;5288;42.334;23.876;2023-07-31T05:12:41;14.23;;;12.83;;
10481;SDS011;5288;42.334;23.876;2023-07-31T05:15:09;14.67;;;13.27;;
10481;SDS011;5288;42.334;23.876;2023-07-31T05:17:36;16.93;;;14.43;;
10481;SDS011;5288;42.334;23.876;2023-07-31T05:20:03;16.43;;;13.50;;
10481;SDS011;5288;42.334;23.876;2023-07-31T05:22:30;17.33;;;14.20;;
10481;SDS011;5288;42.334;23.876;2023-07-31T05:24:59;16.03;;;14.33;;
10481;SDS011;5288;42.334;23.876;2023-07-31T05:27:26;15.47;;;13.87;;
10481;SDS011;5288;42.334;23.876;2023-07-31T05:29:53;17.70;;;15.00;;
10481;SDS011;5288;42.334;23.876;2023-07-31T05:32:20;19.03;;;16.27;;
10481;SDS011;5288;42.334;23.876;2023-07-31T05:34:46;19.27;;;17.10;;
10481;SDS011;5288;42.334;23.876;2023-07-31T05:37:14;22.10;;;19.40;;
10481;SDS011;5288;42.334;23.876;2023-07-31T05:39:41;22.13;;;19.80;;
10481;SDS011;5288;42.334;23.876;2023-07-31T05:42:09;21.07;;;19.07;;
10481;SDS011;5288;42.334;23.876;2023-07-31T05:44:36;25.17;;;22.77;;
10481;SDS011;5288;42.334;23.876;2023-07-31T05:47:03;24.77;;;22.17;;
10481;SDS011;5288;42.334;23.876;2023-07-31T05:49:30;24.00;;;19.07;;
10481;SDS011;5288;42.334;23.876;2023-07-31T05:51:57;21.17;;;19.00;;
10481;SDS011;5288;42.334;23.876;2023-07-31T05:54:24;21.47;;;19.43;;
10481;SDS011;5288;42.334;23.876;2023-07-31T05:56:51;25.97;;;18.43;;
10481;SDS011;5288;42.334;23.876;2023-07-31T05:59:19;23.23;;;19.83;;
10481;SDS011;5288;42.334;23.876;2023-07-31T06:01:46;23.50;;;20.67;;
10481;SDS011;5288;42.334;23.876;2023-07-31T06:04:13;23.83;;;21.23;;
10481;SDS011;5288;42.334;23.876;2023-07-31T06:06:40;22.97;;;20.50;;
10481;SDS011;5288;42.334;23.876;2023-07-31T06:09:07;21.13;;;19.03;;
10481;SDS011;5288;42.334;23.876;2023-07-31T06:11:34;21.53;;;19.33;;
10481;SDS011;5288;42.334;23.876;2023-07-31T06:14:01;24.13;;;21.63;;
10481;SDS011;5288;42.334;23.876;2023-07-31T06:16:29;22.87;;;19.40;;
10481;SDS011;5288;42.334;23.876;2023-07-31T06:18:56;23.87;;;21.37;;
10481;SDS011;5288;42.334;23.876;2023-07-31T06:21:23;21.80;;;18.57;;
10481;SDS011;5288;42.334;23.876;2023-07-31T06:23:50;21.00;;;18.90;;
10481;SDS011;5288;42.334;23.876;2023-07-31T06:26:17;21.80;;;19.40;;
10481;SDS011;5288;42.334;23.876;2023-07-31T06:28:44;20.03;;;18.03;;
10481;SDS011;5288;42.334;23.876;2023-07-31T06:31:11;19.13;;;16.50;;
10481;SDS011;5288;42.334;23.876;2023-07-31T06:33:39;18.77;;;16.97;;
10481;SDS011;5288;42.334;23.876;2023-07-31T06:36:06;18.87;;;17.00;;
10481;SDS011;5288;42.334;23.876;2023-07-31T06:38:33;20.00;;;16.73;;
10481;SDS011;5288;42.334;23.876;2023-07-31T06:41:00;18.00;;;16.20;;
10481;SDS011;5288;42.334;23.876;2023-07-31T06:43:27;18.07;;;16.33;;
10481;SDS011;5288;42.334;23.876;2023-07-31T06:45:54;18.23;;;16.43;;
10481;SDS011;5288;42.334;23.876;2023-07-31T06:48:20;17.77;;;16.07;;
10481;SDS011;5288;42.334;23.876;2023-07-31T06:50:49;18.40;;;16.60;;
10481;SDS011;5288;42.334;23.876;2023-07-31T06:53:16;17.77;;;16.00;;
10481;SDS011;5288;42.334;23.876;2023-07-31T06:55:43;16.80;;;15.13;;
10481;SDS011;5288;42.334;23.876;2023-07-31T06:58:10;16.40;;;14.80;;
10481;SDS011;5288;42.334;23.876;2023-07-31T07:00:37;21.70;;;15.90;;
10481;SDS011;5288;42.334;23.876;2023-07-31T07:03:04;15.73;;;14.20;;
10481;SDS011;5288;42.334;23.876;2023-07-31T07:05:30;15.07;;;13.63;;
10481;SDS011;5288;42.334;23.876;2023-07-31T07:07:59;17.40;;;15.73;;
10481;SDS011;5288;42.334;23.876;2023-07-31T07:10:26;22.63;;;16.10;;
10481;SDS011;5288;42.334;23.876;2023-07-31T07:12:53;17.30;;;15.47;;
10481;SDS011;5288;42.334;23.876;2023-07-31T07:15:21;14.40;;;13.10;;
10481;SDS011;5288;42.334;23.876;2023-07-31T07:17:48;15.07;;;13.57;;
10481;SDS011;5288;42.334;23.876;2023-07-31T07:20:15;15.47;;;13.87;;
10481;SDS011;5288;42.334;23.876;2023-07-31T07:22:42;14.07;;;12.77;;
10481;SDS011;5288;42.334;23.876;2023-07-31T07:25:10;13.30;;;12.00;;
10481;SDS011;5288;42.334;23.876;2023-07-31T07:27:37;13.70;;;12.50;;
10481;SDS011;5288;42.334;23.876;2023-07-31T07:30:04;12.33;;;11.20;;
10481;SDS011;5288;42.334;23.876;2023-07-31T07:32:32;11.10;;;10.00;;
10481;SDS011;5288;42.334;23.876;2023-07-31T07:34:59;10.53;;;9.53;;
10481;SDS011;5288;42.334;23.876;2023-07-31T07:37:26;10.47;;;9.47;;
10481;SDS011;5288;42.334;23.876;2023-07-31T07:39:53;10.70;;;9.60;;
10481;SDS011;5288;42.334;23.876;2023-07-31T07:42:21;11.10;;;9.63;;
10481;SDS011;5288;42.334;23.876;2023-07-31T07:44:48;10.63;;;9.27;;
10481;SDS011;5288;42.334;23.876;2023-07-31T07:47:15;15.63;;;13.30;;
10481;SDS011;5288;42.334;23.876;2023-07-31T07:49:42;13.43;;;12.03;;
10481;SDS011;5288;42.334;23.876;2023-07-31T07:52:09;17.07;;;11.70;;
10481;SDS011;5288;42.334;23.876;2023-07-31T07:54:36;13.53;;;12.23;;
10481;SDS011;5288;42.334;23.876;2023-07-31T07:57:03;12.70;;;11.40;;
10481;SDS011;5288;42.334;23.876;2023-07-31T07:59:32;11.33;;;10.33;;
10481;SDS011;5288;42.334;23.876;2023-07-31T08:01:59;10.17;;;9.27;;
10481;SDS011;5288;42.334;23.876;2023-07-31T08:04:26;10.57;;;9.57;;
10481;SDS011;5288;42.334;23.876;2023-07-31T08:06:52;10.80;;;9.17;;
10481;SDS011;5288;42.334;23.876;2023-07-31T08:09:19;11.37;;;10.37;;
10481;SDS011;5288;42.334;23.876;2023-07-31T08:11:46;10.90;;;9.80;;
10481;SDS011;5288;42.334;23.876;2023-07-31T08:14:13;10.80;;;9.80;;
10481;SDS011;5288;42.334;23.876;2023-07-31T08:16:41;12.30;;;9.77;;
10481;SDS011;5288;42.334;23.876;2023-07-31T08:19:09;9.20;;;6.73;;
10481;SDS011;5288;42.334;23.876;2023-07-31T08:21:36;8.97;;;8.17;;
10481;SDS011;5288;42.334;23.876;2023-07-31T08:24:02;9.83;;;8.43;;
10481;SDS011;5288;42.334;23.876;2023-07-31T08:26:29;8.60;;;7.80;;
10481;SDS011;5288;42.334;23.876;2023-07-31T08:28:56;8.37;;;7.57;;
10481;SDS011;5288;42.334;23.876;2023-07-31T08:31:24;8.60;;;7.23;;
10481;SDS011;5288;42.334;23.876;2023-07-31T08:33:53;7.80;;;7.10;;
10481;SDS011;5288;42.334;23.876;2023-07-31T08:36:20;7.60;;;6.90;;
10481;SDS011;5288;42.334;23.876;2023-07-31T08:38:47;7.80;;;7.03;;
10481;SDS011;5288;42.334;23.876;2023-07-31T08:41:15;7.00;;;6.30;;
10481;SDS011;5288;42.334;23.876;2023-07-31T08:43:42;6.37;;;5.50;;
10481;SDS011;5288;42.334;23.876;2023-07-31T08:46:10;6.43;;;5.83;;
10481;SDS011;5288;42.334;23.876;2023-07-31T08:48:39;6.43;;;5.93;;
10481;SDS011;5288;42.334;23.876;2023-07-31T08:51:10;6.57;;;5.53;;
10481;SDS011;5288;42.334;23.876;2023-07-31T08:53:37;6.17;;;5.67;;
10481;SDS011;5288;42.334;23.876;2023-07-31T08:56:04;6.67;;;5.77;;
10481;SDS011;5288;42.334;23.876;2023-07-31T08:58:33;6.53;;;5.93;;
10481;SDS011;5288;42.334;23.876;2023-07-31T09:01:03;7.07;;;5.17;;
10481;SDS011;5288;42.334;23.876;2023-07-31T09:03:32;5.90;;;5.30;;
10481;SDS011;5288;42.334;23.876;2023-07-31T09:06:00;6.73;;;4.60;;
10481;SDS011;5288;42.334;23.876;2023-07-31T09:08:32;7.57;;;5.50;;
10481;SDS011;5288;42.334;23.876;2023-07-31T09:11:00;5.60;;;5.00;;
10481;SDS011;5288;42.334;23.876;2023-07-31T09:13:29;7.00;;;5.17;;
10481;SDS011;5288;42.334;23.876;2023-07-31T09:15:56;5.53;;;5.03;;
10481;SDS011;5288;42.334;23.876;2023-07-31T09:18:24;5.30;;;4.80;;
10481;SDS011;5288;42.334;23.876;2023-07-31T09:21:00;6.17;;;4.83;;
10481;SDS011;5288;42.334;23.876;2023-07-31T09:23:41;4.37;;;3.80;;
10481;SDS011;5288;42.334;23.876;2023-07-31T09:26:09;4.67;;;4.27;;
10481;SDS011;5288;42.334;23.876;2023-07-31T09:28:36;5.00;;;4.20;;
10481;SDS011;5288;42.334;23.876;2023-07-31T09:31:03;4.73;;;4.00;;
10481;SDS011;5288;42.334;23.876;2023-07-31T09:33:30;6.23;;;4.10;;
10481;SDS011;5288;42.334;23.876;2023-07-31T09:35:58;4.07;;;3.67;;
10481;SDS011;5288;42.334;23.876;2023-07-31T09:38:25;4.23;;;3.90;;
10481;SDS011;5288;42.334;23.876;2023-07-31T09:40:54;4.43;;;4.00;;
10481;SDS011;5288;42.334;23.876;2023-07-31T09:43:21;4.47;;;4.07;;
10481;SDS011;5288;42.334;23.876;2023-07-31T09:45:54;6.13;;;4.37;;
10481;SDS011;5288;42.334;23.876;2023-07-31T09:48:23;4.67;;;4.20;;
10481;SDS011;5288;42.334;23.876;2023-07-31T09:50:52;5.25;;;4.10;;
10481;SDS011;5288;42.334;23.876;2023-07-31T09:53:19;4.07;;;3.67;;
10481;SDS011;5288;42.334;23.876;2023-07-31T09:55:55;3.92;;;3.38;;
10481;SDS011;5288;42.334;23.876;2023-07-31T09:58:25;4.17;;;3.43;;
10481;SDS011;5288;42.334;23.876;2023-07-31T10:00:55;3.60;;;3.30;;
10481;SDS011;5288;42.334;23.876;2023-07-31T10:03:24;4.78;;;3.17;;
10481;SDS011;5288;42.334;23.876;2023-07-31T10:05:53;3.15;;;2.85;;
10481;SDS011;5288;42.334;23.876;2023-07-31T10:08:24;4.90;;;3.50;;
10481;SDS011;5288;42.334;23.876;2023-07-31T10:10:59;3.45;;;3.17;;
10481;SDS011;5288;42.334;23.876;2023-07-31T10:13:27;4.23;;;3.23;;
10481;SDS011;5288;42.334;23.876;2023-07-31T10:15:57;3.80;;;3.42;;
10481;SDS011;5288;42.334;23.876;2023-07-31T10:18:25;3.15;;;2.95;;
10481;SDS011;5288;42.334;23.876;2023-07-31T10:20:54;4.88;;;2.92;;
10481;SDS011;5288;42.334;23.876;2023-07-31T10:23:22;7.70;;;3.53;;
10481;SDS011;5288;42.334;23.876;2023-07-31T10:25:50;7.38;;;3.50;;
10481;SDS011;5288;42.334;23.876;2023-07-31T10:28:21;4.43;;;3.60;;
10481;SDS011;5288;42.334;23.876;2023-07-31T10:30:51;3.53;;;3.23;;
10481;SDS011;5288;42.334;23.876;2023-07-31T10:33:18;4.63;;;3.38;;
10481;SDS011;5288;42.334;23.876;2023-07-31T10:35:46;3.90;;;3.30;;
10481;SDS011;5288;42.334;23.876;2023-07-31T10:38:13;3.87;;;3.47;;
10481;SDS011;5288;42.334;23.876;2023-07-31T10:40:41;4.53;;;3.38;;
10481;SDS011;5288;42.334;23.876;2023-07-31T10:43:08;3.30;;;2.83;;
10481;SDS011;5288;42.334;23.876;2023-07-31T10:45:38;4.68;;;3.40;;
10481;SDS011;5288;42.334;23.876;2023-07-31T10:48:06;4.78;;;2.50;;
10481;SDS011;5288;42.334;23.876;2023-07-31T10:50:37;5.25;;;2.70;;
10481;SDS011;5288;42.334;23.876;2023-07-31T10:53:04;2.70;;;2.50;;
10481;SDS011;5288;42.334;23.876;2023-07-31T10:55:32;3.10;;;2.80;;
10481;SDS011;5288;42.334;23.876;2023-07-31T10:58:05;2.83;;;2.60;;
10481;SDS011;5288;42.334;23.876;2023-07-31T11:00:34;4.75;;;2.60;;
10481;SDS011;5288;42.334;23.876;2023-07-31T11:03:05;4.97;;;2.67;;
10481;SDS011;5288;42.334;23.876;2023-07-31T11:05:47;5.18;;;2.72;;
10481;SDS011;5288;42.334;23.876;2023-07-31T11:08:16;6.43;;;2.80;;
10481;SDS011;5288;42.334;23.876;2023-07-31T11:10:44;4.10;;;3.33;;
10481;SDS011;5288;42.334;23.876;2023-07-31T11:13:12;2.92;;;2.67;;
10481;SDS011;5288;42.334;23.876;2023-07-31T11:15:41;4.05;;;3.45;;
10481;SDS011;5288;42.334;23.876;2023-07-31T11:18:08;3.10;;;2.80;;
10481;SDS011;5288;42.334;23.876;2023-07-31T11:20:36;3.33;;;2.83;;
10481;SDS011;5288;42.334;23.876;2023-07-31T11:23:06;3.38;;;2.70;;
10481;SDS011;5288;42.334;23.876;2023-07-31T11:25:34;2.13;;;2.03;;
10481;SDS011;5288;42.334;23.876;2023-07-31T11:28:05;4.95;;;2.63;;
10481;SDS011;5288;42.334;23.876;2023-07-31T11:30:33;4.10;;;3.15;;
10481;SDS011;5288;42.334;23.876;2023-07-31T11:33:05;2.85;;;2.40;;
10481;SDS011;5288;42.334;23.876;2023-07-31T11:35:32;2.50;;;2.30;;
10481;SDS011;5288;42.334;23.876;2023-07-31T11:38:00;3.42;;;2.60;;
10481;SDS011;5288;42.334;23.876;2023-07-31T11:40:28;3.45;;;3.15;;
10481;SDS011;5288;42.334;23.876;2023-07-31T11:42:58;2.85;;;2.65;;
10481;SDS011;5288;42.334;23.876;2023-07-31T11:45:30;3.50;;;2.90;;
10481;SDS011;5288;42.334;23.876;2023-07-31T11:47:58;3.15;;;2.85;;
10481;SDS011;5288;42.334;23.876;2023-07-31T11:50:26;3.22;;;2.92;;
10481;SDS011;5288;42.334;23.876;2023-07-31T11:52:55;3.75;;;2.92;;
10481;SDS011;5288;42.334;23.876;2023-07-31T11:55:25;3.45;;;3.00;;
10481;SDS011;5288;42.334;23.876;2023-07-31T11:57:55;3.42;;;3.08;;
10481;SDS011;5288;42.334;23.876;2023-07-31T12:00:24;2.95;;;2.75;;
10481;SDS011;5288;42.334;23.876;2023-07-31T12:02:51;3.38;;;3.00;;
10481;SDS011;5288;42.334;23.876;2023-07-31T12:05:19;7.88;;;4.13;;
10481;SDS011;5288;42.334;23.876;2023-07-31T12:07:50;3.65;;;3.13;;
10481;SDS011;5288;42.334;23.876;2023-07-31T12:10:28;5.43;;;3.28;;
10481;SDS011;5288;42.334;23.876;2023-07-31T12:12:56;3.28;;;2.70;;
10481;SDS011;5288;42.334;23.876;2023-07-31T12:15:37;5.28;;;3.13;;
10481;SDS011;5288;42.334;23.876;2023-07-31T12:18:06;4.70;;;3.08;;
10481;SDS011;5288;42.334;23.876;2023-07-31T12:20:35;8.23;;;3.88;;
10481;SDS011;5288;42.334;23.876;2023-07-31T12:23:03;3.10;;;2.78;;
10481;SDS011;5288;42.334;23.876;2023-07-31T12:25:30;2.90;;;2.70;;
10481;SDS011;5288;42.334;23.876;2023-07-31T12:28:03;4.13;;;2.58;;
10481;SDS011;5288;42.334;23.876;2023-07-31T12:30:32;3.97;;;2.63;;
10481;SDS011;5288;42.334;23.876;2023-07-31T12:33:04;3.00;;;2.53;;
10481;SDS011;5288;42.334;23.876;2023-07-31T12:35:34;3.00;;;2.78;;
10481;SDS011;5288;42.334;23.876;2023-07-31T12:38:04;5.15;;;2.75;;
10481;SDS011;5288;42.334;23.876;2023-07-31T12:40:31;3.20;;;2.60;;
10481;SDS011;5288;42.334;23.876;2023-07-31T12:42:58;2.58;;;2.38;;
10481;SDS011;5288;42.334;23.876;2023-07-31T12:45:28;6.03;;;2.53;;
10481;SDS011;5288;42.334;23.876;2023-07-31T12:47:56;2.40;;;2.20;;
10481;SDS011;5288;42.334;23.876;2023-07-31T12:50:23;3.33;;;2.58;;
10481;SDS011;5288;42.334;23.876;2023-07-31T12:52:50;3.22;;;2.50;;
10481;SDS011;5288;42.334;23.876;2023-07-31T12:55:19;2.13;;;1.90;;
10481;SDS011;5288;42.334;23.876;2023-07-31T12:57:46;6.07;;;2.30;;
10481;SDS011;5288;42.334;23.876;2023-07-31T13:00:13;2.13;;;1.92;;
10481;SDS011;5288;42.334;23.876;2023-07-31T13:02:40;2.38;;;2.00;;
10481;SDS011;5288;42.334;23.876;2023-07-31T13:05:08;2.15;;;2.00;;
10481;SDS011;5288;42.334;23.876;2023-07-31T13:07:35;2.30;;;2.10;;
10481;SDS011;5288;42.334;23.876;2023-07-31T13:10:02;2.35;;;2.15;;
10481;SDS011;5288;42.334;23.876;2023-07-31T13:12:30;2.25;;;2.05;;
10481;SDS011;5288;42.334;23.876;2023-07-31T13:14:57;4.13;;;2.10;;
10481;SDS011;5288;42.334;23.876;2023-07-31T13:17:24;2.10;;;1.90;;
10481;SDS011;5288;42.334;23.876;2023-07-31T13:19:51;3.25;;;2.08;;
10481;SDS011;5288;42.334;23.876;2023-07-31T13:22:18;4.07;;;2.10;;
10481;SDS011;5288;42.334;23.876;2023-07-31T13:24:45;4.50;;;2.22;;
10481;SDS011;5288;42.334;23.876;2023-07-31T13:27:12;2.25;;;2.05;;
10481;SDS011;5288;42.334;23.876;2023-07-31T13:29:43;2.38;;;2.13;;
10481;SDS011;5288;42.334;23.876;2023-07-31T13:32:10;4.43;;;2.15;;
10481;SDS011;5288;42.334;23.876;2023-07-31T13:34:37;2.88;;;2.00;;
10481;SDS011;5288;42.334;23.876;2023-07-31T13:37:04;2.33;;;2.08;;
10481;SDS011;5288;42.334;23.876;2023-07-31T13:39:32;2.10;;;1.88;;
10481;SDS011;5288;42.334;23.876;2023-07-31T13:41:59;2.13;;;1.90;;
10481;SDS011;5288;42.334;23.876;2023-07-31T13:44:26;2.10;;;1.85;;
10481;SDS011;5288;42.334;23.876;2023-07-31T13:46:54;2.47;;;2.28;;
10481;SDS011;5288;42.334;23.876;2023-07-31T13:49:22;3.42;;;2.00;;
10481;SDS011;5288;42.334;23.876;2023-07-31T13:51:49;7.20;;;2.15;;
10481;SDS011;5288;42.334;23.876;2023-07-31T13:54:16;2.33;;;2.10;;
10481;SDS011;5288;42.334;23.876;2023-07-31T13:56:43;3.95;;;2.30;;
10481;SDS011;5288;42.334;23.876;2023-07-31T13:59:10;6.63;;;2.60;;
10481;SDS011;5288;42.334;23.876;2023-07-31T14:01:38;3.03;;;2.55;;
10481;SDS011;5288;42.334;23.876;2023-07-31T14:04:07;2.40;;;2.20;;
10481;SDS011;5288;42.334;23.876;2023-07-31T14:06:33;12.52;;;3.95;;
10481;SDS011;5288;42.334;23.876;2023-07-31T14:09:00;4.75;;;2.60;;
10481;SDS011;5288;42.334;23.876;2023-07-31T14:11:28;4.47;;;2.50;;
10481;SDS011;5288;42.334;23.876;2023-07-31T14:13:55;3.53;;;2.65;;
10481;SDS011;5288;42.334;23.876;2023-07-31T14:16:22;4.50;;;2.80;;
10481;SDS011;5288;42.334;23.876;2023-07-31T14:18:49;4.72;;;3.03;;
10481;SDS011;5288;42.334;23.876;2023-07-31T14:21:20;5.35;;;2.80;;
10481;SDS011;5288;42.334;23.876;2023-07-31T14:23:47;5.10;;;3.28;;
10481;SDS011;5288;42.334;23.876;2023-07-31T14:26:13;3.50;;;3.00;;
10481;SDS011;5288;42.334;23.876;2023-07-31T14:28:41;3.42;;;3.10;;
10481;SDS011;5288;42.334;23.876;2023-07-31T14:31:08;3.80;;;3.20;;
10481;SDS011;5288;42.334;23.876;2023-07-31T14:33:35;6.28;;;3.60;;
10481;SDS011;5288;42.334;23.876;2023-07-31T14:36:02;5.93;;;3.10;;
10481;SDS011;5288;42.334;23.876;2023-07-31T14:38:31;5.78;;;3.25;;
10481;SDS011;5288;42.334;23.876;2023-07-31T14:40:58;4.18;;;3.75;;
10481;SDS011;5288;42.334;23.876;2023-07-31T14:43:25;4.00;;;3.70;;
10481;SDS011;5288;42.334;23.876;2023-07-31T14:45:52;9.52;;;4.28;;